Time;durP1;ratioP1;P1;durP2;ratioP2;P2;SDS_P1;SDS_P2;PMS_P1;PMS_P2;Temp;Humidity;BMP_temperature;BMP_pressure;BME280_temperature;BME280_humidity;BME280_pressure;Samples;Min_cycle;Max_cycle;Signal;HPM_P1;HPM_P2
2022/11/18 00:00:38;;;;;;;15.45;11.57;;;;;;;;;;5116393;28;20220;-67
2022/11/18 00:03:07;;;;;;;16.15;10.65;;;;;;;;;;5116143;28;20287;-67
2022/11/18 00:05:36;;;;;;;11.18;9.02;;;;;;;;;;5116145;28;20279;-67
2022/11/18 00:08:03;;;;;;;18.33;9.70;;;;;;;;;;5115840;28;20682;-67
2022/11/18 00:10:30;;;;;;;13.80;9.88;;;;;;;;;;5116019;28;20196;-65
2022/11/18 00:15:42;;;;;;;14.23;9.20;;;;;;;;;;5115848;28;20631;-67
2022/11/18 00:18:09;;;;;;;12.05;10.00;;;;;;;;;;5115831;28;20301;-67
2022/11/18 00:20:38;;;;;;;18.15;9.80;;;;;;;;;;5115805;28;20575;-67
2022/11/18 00:23:05;;;;;;;13.43;10.40;;;;;;;;;;5115807;28;20199;-68
2022/11/18 00:25:34;;;;;;;14.93;10.18;;;;;;;;;;5115747;28;20204;-67
2022/11/18 00:28:01;;;;;;;22.65;10.35;;;;;;;;;;5115616;28;20200;-67
2022/11/18 00:30:28;;;;;;;12.05;9.80;;;;;;;;;;5115083;28;20573;-67
2022/11/18 00:32:56;;;;;;;11.90;9.70;;;;;;;;;;5115513;28;20200;-67
2022/11/18 00:35:23;;;;;;;17.88;10.10;;;;;;;;;;5115746;28;20237;-67
2022/11/18 00:37:52;;;;;;;13.48;9.80;;;;;;;;;;5115446;28;20282;-67
2022/11/18 00:40:19;;;;;;;14.65;10.52;;;;;;;;;;5115396;28;20212;-67
2022/11/18 00:42:51;;;;;;;12.25;9.80;;;;;;;;;;5115567;28;20703;-67
2022/11/18 00:45:19;;;;;;;16.48;9.15;;;;;;;;;;5115454;28;20185;-67
2022/11/18 00:47:46;;;;;;;12.48;9.80;;;;;;;;;;5114972;28;20231;-67
2022/11/18 00:50:13;;;;;;;15.05;9.30;;;;;;;;;;5115543;28;20649;-68
2022/11/18 00:52:40;;;;;;;14.15;10.85;;;;;;;;;;5115398;28;20291;-68
2022/11/18 00:55:09;;;;;;;12.00;9.95;;;;;;;;;;5115209;28;20196;-68
2022/11/18 00:57:36;;;;;;;14.07;9.88;;;;;;;;;;5114869;28;20241;-68
2022/11/18 01:00:04;;;;;;;14.63;10.00;;;;;;;;;;5115221;28;20189;-68
2022/11/18 01:02:31;;;;;;;13.52;10.73;;;;;;;;;;5115062;28;20203;-67
2022/11/18 01:04:59;;;;;;;15.98;10.48;;;;;;;;;;5114619;28;20197;-67
2022/11/18 01:07:26;;;;;;;15.50;9.13;;;;;;;;;;5114532;28;20193;-67
2022/11/18 01:09:53;;;;;;;17.75;9.98;;;;;;;;;;5114808;28;20213;-68
2022/11/18 01:15:07;;;;;;;12.85;9.35;;;;;;;;;;5114613;28;20283;-68
2022/11/18 01:17:34;;;;;;;17.33;11.00;;;;;;;;;;5114804;28;20203;-67
2022/11/18 01:20:02;;;;;;;22.10;10.20;;;;;;;;;;5114290;28;20195;-68
2022/11/18 01:22:29;;;;;;;21.08;10.30;;;;;;;;;;5114769;28;20554;-68
2022/11/18 01:24:56;;;;;;;19.40;10.70;;;;;;;;;;5114964;28;20558;-68
2022/11/18 01:27:24;;;;;;;16.00;10.70;;;;;;;;;;5114187;28;20199;-68
2022/11/18 01:29:52;;;;;;;19.20;9.73;;;;;;;;;;5114637;28;20193;-67
2022/11/18 01:32:19;;;;;;;13.02;10.23;;;;;;;;;;5114343;28;20450;-67
2022/11/18 01:34:46;;;;;;;15.88;10.30;;;;;;;;;;5114514;28;20670;-67
2022/11/18 01:37:13;;;;;;;12.80;9.13;;;;;;;;;;5114335;28;20219;-67
2022/11/18 01:39:40;;;;;;;11.32;9.18;;;;;;;;;;5114367;28;20283;-67
2022/11/18 01:42:12;;;;;;;13.40;9.52;;;;;;;;;;5113109;28;20242;-67
2022/11/18 01:45:03;;;;;;;15.73;10.15;;;;;;;;;;5114401;28;20185;-67
2022/11/18 01:47:32;;;;;;;16.10;10.85;;;;;;;;;;5114984;28;20221;-67
2022/11/18 01:49:59;;;;;;;15.82;10.48;;;;;;;;;;5114206;28;20192;-67
2022/11/18 01:52:27;;;;;;;15.00;10.65;;;;;;;;;;5114078;28;20196;-67
2022/11/18 01:54:57;;;;;;;14.32;11.25;;;;;;;;;;5114187;28;20193;-67
2022/11/18 01:57:26;;;;;;;15.90;10.70;;;;;;;;;;5114467;28;20195;-67
2022/11/18 01:59:55;;;;;;;21.02;10.90;;;;;;;;;;5114679;28;20201;-67
2022/11/18 02:02:25;;;;;;;16.48;10.98;;;;;;;;;;5114252;28;20213;-67
2022/11/18 02:04:53;;;;;;;17.95;8.68;;;;;;;;;;5113676;28;20332;-66
2022/11/18 02:07:21;;;;;;;14.18;10.13;;;;;;;;;;5114000;28;20202;-67
2022/11/18 02:09:48;;;;;;;13.70;9.55;;;;;;;;;;5113891;28;20199;-67
2022/11/18 02:12:15;;;;;;;13.52;8.80;;;;;;;;;;5113645;28;20193;-67
2022/11/18 02:14:44;;;;;;;12.32;9.18;;;;;;;;;;5113980;28;20199;-67
2022/11/18 02:17:14;;;;;;;13.63;9.15;;;;;;;;;;5113859;28;20193;-67
2022/11/18 02:20:00;;;;;;;16.83;8.70;;;;;;;;;;5113685;28;20249;-67
2022/11/18 02:22:37;;;;;;;14.75;8.20;;;;;;;;;;5113777;28;20233;-68
2022/11/18 02:25:07;;;;;;;11.82;8.07;;;;;;;;;;5113725;28;20187;-67
2022/11/18 02:27:53;;;;;;;11.85;7.30;;;;;;;;;;5114578;28;20562;-69
2022/11/18 02:30:22;;;;;;;9.02;8.13;;;;;;;;;;5113512;28;20177;-68
2022/11/18 02:32:52;;;;;;;12.30;8.57;;;;;;;;;;5114006;28;20197;-69
2022/11/18 02:35:25;;;;;;;13.25;7.97;;;;;;;;;;5114377;28;20189;-68
2022/11/18 02:37:55;;;;;;;12.55;7.63;;;;;;;;;;5113912;28;20634;-67
2022/11/18 02:40:24;;;;;;;8.70;7.45;;;;;;;;;;5114239;28;20184;-68
2022/11/18 02:42:52;;;;;;;11.25;8.25;;;;;;;;;;5114056;28;20266;-68
2022/11/18 02:45:20;;;;;;;14.25;8.18;;;;;;;;;;5113597;28;20628;-68
2022/11/18 02:47:50;;;;;;;11.13;8.25;;;;;;;;;;5113720;28;20193;-68
2022/11/18 02:50:18;;;;;;;18.38;8.38;;;;;;;;;;5113349;28;20550;-68
2022/11/18 02:52:46;;;;;;;13.35;8.20;;;;;;;;;;5115544;28;20192;-68
2022/11/18 02:55:15;;;;;;;13.55;9.40;;;;;;;;;;5117145;28;20658;-68
2022/11/18 02:57:44;;;;;;;9.30;8.32;;;;;;;;;;5117216;28;20200;-69
2022/11/18 03:00:11;;;;;;;12.45;9.15;;;;;;;;;;5117597;28;20290;-69
2022/11/18 03:02:42;;;;;;;13.25;8.65;;;;;;;;;;5117032;28;20220;-69
2022/11/18 03:05:15;;;;;;;11.50;9.60;;;;;;;;;;5117406;28;20199;-68
2022/11/18 03:07:44;;;;;;;12.35;9.07;;;;;;;;;;5117835;28;20185;-68
2022/11/18 03:10:12;;;;;;;10.77;9.77;;;;;;;;;;5117340;28;20248;-67
2022/11/18 03:12:43;;;;;;;20.13;10.15;;;;;;;;;;5116869;28;20189;-68
2022/11/18 03:15:17;;;;;;;12.27;9.68;;;;;;;;;;5117109;28;20189;-68
2022/11/18 03:17:48;;;;;;;12.65;10.18;;;;;;;;;;5117251;28;20181;-67
2022/11/18 03:20:20;;;;;;;15.87;8.67;;;;;;;;;;5117236;28;20181;-68
2022/11/18 03:22:51;;;;;;;10.13;9.10;;;;;;;;;;5117102;27;20466;-68
2022/11/18 03:25:20;;;;;;;11.17;9.10;;;;;;;;;;5117060;28;20178;-67
2022/11/18 03:27:51;;;;;;;12.25;9.57;;;;;;;;;;5117076;28;20446;-67
2022/11/18 03:30:19;;;;;;;12.25;9.50;;;;;;;;;;5117052;28;20192;-68
2022/11/18 03:32:50;;;;;;;14.05;8.95;;;;;;;;;;5116830;28;20211;-67
2022/11/18 03:35:20;;;;;;;10.43;8.35;;;;;;;;;;5117003;28;20180;-67
2022/11/18 03:37:49;;;;;;;13.40;8.00;;;;;;;;;;5116787;28;20202;-67
2022/11/18 03:40:18;;;;;;;11.70;8.47;;;;;;;;;;5116271;28;20207;-69
2022/11/18 03:42:47;;;;;;;10.45;8.13;;;;;;;;;;5116421;28;20490;-68
2022/11/18 03:45:17;;;;;;;14.13;7.72;;;;;;;;;;5116814;28;20222;-68
2022/11/18 03:47:47;;;;;;;13.88;7.72;;;;;;;;;;5116633;28;20189;-67
2022/11/18 03:50:17;;;;;;;12.15;7.50;;;;;;;;;;5116729;28;20184;-67
2022/11/18 03:52:47;;;;;;;13.35;7.75;;;;;;;;;;5116926;28;20193;-68
2022/11/18 03:55:16;;;;;;;11.95;8.35;;;;;;;;;;5116242;28;20193;-68
2022/11/18 03:57:47;;;;;;;10.35;9.07;;;;;;;;;;5116392;28;20197;-68
2022/11/18 04:00:15;;;;;;;9.98;8.98;;;;;;;;;;5116561;28;20181;-68
2022/11/18 04:02:43;;;;;;;8.88;7.97;;;;;;;;;;5116450;28;20220;-69
2022/11/18 04:05:12;;;;;;;11.63;8.90;;;;;;;;;;5115029;28;20199;-68
2022/11/18 04:07:43;;;;;;;13.13;9.10;;;;;;;;;;5116174;28;20203;-68
2022/11/18 04:10:14;;;;;;;10.40;9.35;;;;;;;;;;5116378;28;20258;-68
2022/11/18 04:12:44;;;;;;;11.95;10.38;;;;;;;;;;5116338;28;20207;-68
2022/11/18 04:15:11;;;;;;;10.60;9.38;;;;;;;;;;5116518;28;20193;-68
2022/11/18 04:17:41;;;;;;;10.73;8.80;;;;;;;;;;5115775;28;20192;-68
2022/11/18 04:20:10;;;;;;;11.13;9.60;;;;;;;;;;5115571;28;20646;-68
2022/11/18 04:22:37;;;;;;;12.07;9.65;;;;;;;;;;5116104;28;20243;-68
2022/11/18 04:25:04;;;;;;;11.10;8.80;;;;;;;;;;5116175;28;20200;-68
2022/11/18 04:27:33;;;;;;;10.52;9.50;;;;;;;;;;5115782;28;20375;-68
2022/11/18 04:30:00;;;;;;;10.55;9.52;;;;;;;;;;5115621;28;20203;-68
2022/11/18 04:32:27;;;;;;;13.10;10.20;;;;;;;;;;5115385;28;20199;-68
2022/11/18 04:34:54;;;;;;;14.98;10.00;;;;;;;;;;5115968;28;20549;-67
2022/11/18 04:37:21;;;;;;;14.02;10.40;;;;;;;;;;5115948;28;20192;-67
2022/11/18 04:39:49;;;;;;;12.77;10.30;;;;;;;;;;5115687;28;20196;-67
2022/11/18 04:42:16;;;;;;;12.57;11.25;;;;;;;;;;5115510;28;20232;-67
2022/11/18 04:44:44;;;;;;;15.65;10.15;;;;;;;;;;5115071;28;20200;-68
2022/11/18 04:47:12;;;;;;;11.10;10.00;;;;;;;;;;5115188;28;20199;-68
2022/11/18 04:49:39;;;;;;;12.23;11.02;;;;;;;;;;5115027;28;20193;-67
2022/11/18 04:52:06;;;;;;;21.30;10.98;;;;;;;;;;5115222;28;20555;-67
2022/11/18 04:54:33;;;;;;;16.30;11.35;;;;;;;;;;5115242;28;20199;-67
2022/11/18 04:57:01;;;;;;;11.30;10.20;;;;;;;;;;5115164;28;20203;-67
2022/11/18 04:59:29;;;;;;;12.90;10.77;;;;;;;;;;5115230;28;20195;-67
2022/11/18 05:01:59;;;;;;;12.88;11.40;;;;;;;;;;5114956;28;20216;-67
2022/11/18 05:04:28;;;;;;;11.80;10.40;;;;;;;;;;5113522;28;20197;-67
2022/11/18 05:06:56;;;;;;;13.13;10.32;;;;;;;;;;5113901;28;20248;-67
2022/11/18 05:09:23;;;;;;;15.68;10.85;;;;;;;;;;5114464;28;20192;-68
2022/11/18 05:14:38;;;;;;;17.80;11.13;;;;;;;;;;5079313;28;20650;-67
2022/11/18 05:17:07;;;;;;;13.57;12.15;;;;;;;;;;5114311;28;20224;-67
2022/11/18 05:19:35;;;;;;;16.08;11.35;;;;;;;;;;5114611;28;20197;-67
2022/11/18 05:22:02;;;;;;;17.77;11.98;;;;;;;;;;5113892;28;20232;-69
2022/11/18 05:24:29;;;;;;;13.25;11.95;;;;;;;;;;5114087;28;20697;-68
2022/11/18 05:26:56;;;;;;;15.63;11.80;;;;;;;;;;5114353;28;20204;-68
2022/11/18 05:29:23;;;;;;;19.25;12.55;;;;;;;;;;5114596;28;20284;-68
2022/11/18 05:31:51;;;;;;;17.90;12.90;;;;;;;;;;5114485;28;20292;-68
2022/11/18 05:34:20;;;;;;;14.75;12.35;;;;;;;;;;5114306;28;20193;-68
2022/11/18 05:36:47;;;;;;;16.33;12.40;;;;;;;;;;5113852;28;20227;-69
2022/11/18 05:39:14;;;;;;;16.92;13.05;;;;;;;;;;5113975;28;20196;-68
2022/11/18 05:44:26;;;;;;;27.13;12.55;;;;;;;;;;5113865;28;20178;-68
2022/11/18 05:46:54;;;;;;;18.50;12.93;;;;;;;;;;5113998;28;20303;-68
2022/11/18 05:49:22;;;;;;;24.95;14.00;;;;;;;;;;5114167;28;20222;-68
2022/11/18 05:51:49;;;;;;;17.90;13.35;;;;;;;;;;5113978;28;20197;-69
2022/11/18 05:54:17;;;;;;;17.83;13.05;;;;;;;;;;5114170;28;20527;-69
2022/11/18 05:56:44;;;;;;;15.85;12.10;;;;;;;;;;5113845;28;20192;-68
2022/11/18 05:59:12;;;;;;;14.65;12.88;;;;;;;;;;5113961;28;20283;-69
2022/11/18 06:01:42;;;;;;;17.15;12.35;;;;;;;;;;5113530;28;20215;-68
2022/11/18 06:04:11;;;;;;;24.08;12.55;;;;;;;;;;5113262;28;20585;-68
2022/11/18 06:06:40;;;;;;;17.20;11.80;;;;;;;;;;5113754;28;20193;-68
2022/11/18 06:09:08;;;;;;;19.58;13.65;;;;;;;;;;5113942;28;20193;-68
2022/11/18 06:11:39;;;;;;;25.98;13.52;;;;;;;;;;5113352;28;20203;-70
2022/11/18 06:14:08;;;;;;;17.02;14.05;;;;;;;;;;5113850;28;20562;-68
2022/11/18 06:16:36;;;;;;;15.65;12.63;;;;;;;;;;5113577;28;20189;-68
2022/11/18 06:19:03;;;;;;;16.77;12.88;;;;;;;;;;5113778;28;20284;-68
2022/11/18 06:21:31;;;;;;;19.13;13.90;;;;;;;;;;5113345;28;20646;-68
2022/11/18 06:24:01;;;;;;;18.33;14.52;;;;;;;;;;5113769;28;20189;-68
2022/11/18 06:26:28;;;;;;;19.63;13.65;;;;;;;;;;5113788;28;20189;-68
2022/11/18 06:28:56;;;;;;;19.13;13.65;;;;;;;;;;5117975;28;20199;-68
2022/11/18 06:31:23;;;;;;;27.17;15.60;;;;;;;;;;5117949;28;20196;-68
2022/11/18 06:33:50;;;;;;;16.38;13.32;;;;;;;;;;5118061;28;20288;-69
2022/11/18 06:36:18;;;;;;;17.63;12.97;;;;;;;;;;5118202;28;20202;-68
2022/11/18 06:38:45;;;;;;;19.33;14.82;;;;;;;;;;5118126;28;20442;-69
2022/11/18 06:41:13;;;;;;;18.08;13.80;;;;;;;;;;5117625;28;20291;-69
2022/11/18 06:43:44;;;;;;;16.42;13.43;;;;;;;;;;5118057;28;20248;-68
2022/11/18 06:48:57;;;;;;;18.25;12.27;;;;;;;;;;5117514;28;20180;-69
2022/11/18 06:51:24;;;;;;;18.75;13.93;;;;;;;;;;5117437;28;20201;-68
2022/11/18 06:53:52;;;;;;;18.80;13.52;;;;;;;;;;5117570;28;20227;-69
2022/11/18 06:56:21;;;;;;;21.52;14.02;;;;;;;;;;5117572;28;20557;-68
2022/11/18 06:58:53;;;;;;;21.58;14.07;;;;;;;;;;5117396;28;20195;-69
2022/11/18 07:01:21;;;;;;;16.80;13.82;;;;;;;;;;5117030;28;20660;-69
2022/11/18 07:03:48;;;;;;;18.60;15.38;;;;;;;;;;5117038;28;20216;-70
2022/11/18 07:06:16;;;;;;;17.92;15.48;;;;;;;;;;5117309;28;20193;-69
2022/11/18 07:08:44;;;;;;;20.35;14.18;;;;;;;;;;5117124;28;20284;-69
2022/11/18 07:11:12;;;;;;;20.58;14.40;;;;;;;;;;5117308;28;20218;-69
2022/11/18 07:13:41;;;;;;;23.92;15.77;;;;;;;;;;5116728;28;20561;-69
2022/11/18 07:16:09;;;;;;;19.58;14.70;;;;;;;;;;5117218;28;20573;-69
2022/11/18 07:18:37;;;;;;;21.60;15.43;;;;;;;;;;5117027;28;20199;-70
2022/11/18 07:21:05;;;;;;;20.65;14.93;;;;;;;;;;5117633;28;20284;-72
2022/11/18 07:23:33;;;;;;;22.40;17.10;;;;;;;;;;5117047;28;20213;-70
2022/11/18 07:26:00;;;;;;;33.53;22.05;;;;;;;;;;5116988;28;20447;-70
2022/11/18 07:28:28;;;;;;;21.10;16.20;;;;;;;;;;5116579;28;20197;-69
2022/11/18 07:31:02;;;;;;;24.00;16.05;;;;;;;;;;5117362;28;20203;-69
2022/11/18 07:33:29;;;;;;;23.27;16.17;;;;;;;;;;5116597;28;20184;-69
2022/11/18 07:35:57;;;;;;;22.42;15.55;;;;;;;;;;5116754;28;20430;-69
2022/11/18 07:38:24;;;;;;;26.25;15.98;;;;;;;;;;5116671;28;20192;-69
2022/11/18 07:40:51;;;;;;;24.55;16.50;;;;;;;;;;5116343;28;20294;-70
2022/11/18 07:43:18;;;;;;;25.05;16.02;;;;;;;;;;5116708;28;20274;-69
2022/11/18 07:45:45;;;;;;;28.40;15.23;;;;;;;;;;5116819;28;20192;-68
2022/11/18 07:48:15;;;;;;;21.45;16.27;;;;;;;;;;5116429;28;20442;-69
2022/11/18 07:50:42;;;;;;;24.23;17.25;;;;;;;;;;5116907;28;20195;-70
2022/11/18 07:53:09;;;;;;;35.38;17.08;;;;;;;;;;5116744;28;20197;-70
2022/11/18 07:55:37;;;;;;;25.25;17.83;;;;;;;;;;5116321;28;20197;-70
2022/11/18 07:58:04;;;;;;;26.13;17.65;;;;;;;;;;5115761;28;20292;-69
2022/11/18 08:00:31;;;;;;;25.70;17.50;;;;;;;;;;5115821;28;20208;-70
2022/11/18 08:02:58;;;;;;;25.10;17.00;;;;;;;;;;5116285;28;20216;-69
2022/11/18 08:05:27;;;;;;;27.10;16.77;;;;;;;;;;5116052;28;20193;-70
2022/11/18 08:07:54;;;;;;;30.50;16.88;;;;;;;;;;5115604;28;20278;-70
2022/11/18 08:10:21;;;;;;;25.90;16.90;;;;;;;;;;5116051;28;20223;-70
2022/11/18 08:12:48;;;;;;;27.58;18.63;;;;;;;;;;5116695;28;20193;-69
2022/11/18 08:15:16;;;;;;;28.38;17.35;;;;;;;;;;5115744;28;20195;-70
2022/11/18 08:17:43;;;;;;;29.02;19.73;;;;;;;;;;5115884;28;20279;-70
2022/11/18 08:20:11;;;;;;;22.92;18.08;;;;;;;;;;5115895;28;20288;-69
2022/11/18 08:22:39;;;;;;;27.70;17.90;;;;;;;;;;5115641;28;20708;-69
2022/11/18 08:25:07;;;;;;;30.63;18.30;;;;;;;;;;5115549;28;20196;-69
2022/11/18 08:27:34;;;;;;;24.77;18.27;;;;;;;;;;5115147;28;20193;-69
2022/11/18 08:30:02;;;;;;;36.38;19.90;;;;;;;;;;5115298;28;20723;-69
2022/11/18 08:32:29;;;;;;;32.67;19.63;;;;;;;;;;5115301;28;20287;-69
2022/11/18 08:34:56;;;;;;;33.88;20.30;;;;;;;;;;5115646;28;20196;-69
2022/11/18 08:37:23;;;;;;;29.02;18.98;;;;;;;;;;5116223;28;20196;-69
2022/11/18 08:39:52;;;;;;;28.85;19.35;;;;;;;;;;5115490;28;20192;-69
2022/11/18 08:42:21;;;;;;;29.42;18.90;;;;;;;;;;5115568;28;20220;-69
2022/11/18 08:44:48;;;;;;;28.88;19.25;;;;;;;;;;5115028;28;20193;-69
2022/11/18 08:47:15;;;;;;;32.55;19.65;;;;;;;;;;5115426;28;20208;-70
2022/11/18 08:49:42;;;;;;;31.90;20.20;;;;;;;;;;5114671;28;20236;-70
2022/11/18 08:52:10;;;;;;;32.50;19.40;;;;;;;;;;5114991;28;20189;-69
2022/11/18 08:54:37;;;;;;;28.85;19.15;;;;;;;;;;5115189;28;20188;-70
2022/11/18 08:57:06;;;;;;;26.83;19.70;;;;;;;;;;5114899;28;20196;-69
2022/11/18 08:59:33;;;;;;;26.52;18.38;;;;;;;;;;5114742;28;20195;-69
2022/11/18 09:02:00;;;;;;;28.95;19.88;;;;;;;;;;5115102;28;20565;-69
2022/11/18 09:04:27;;;;;;;26.50;19.30;;;;;;;;;;5115018;28;20315;-69
2022/11/18 09:06:55;;;;;;;30.52;19.63;;;;;;;;;;5114771;28;20223;-69
2022/11/18 09:09:22;;;;;;;30.92;20.60;;;;;;;;;;5114834;28;20189;-69
2022/11/18 09:11:49;;;;;;;26.67;17.70;;;;;;;;;;5114508;28;20607;-69
2022/11/18 09:14:18;;;;;;;28.98;18.52;;;;;;;;;;5114828;28;20211;-69
2022/11/18 09:16:45;;;;;;;26.08;19.23;;;;;;;;;;5114887;28;20196;-69
2022/11/18 09:19:12;;;;;;;28.13;19.05;;;;;;;;;;5114405;28;20194;-70
2022/11/18 09:21:39;;;;;;;27.00;18.08;;;;;;;;;;5114633;28;20287;-70
2022/11/18 09:24:07;;;;;;;28.55;19.13;;;;;;;;;;5114284;28;20216;-69
2022/11/18 09:26:34;;;;;;;26.10;17.65;;;;;;;;;;5114676;28;20196;-69
2022/11/18 09:29:07;;;;;;;27.92;18.63;;;;;;;;;;5114841;28;20245;-70
2022/11/18 09:31:35;;;;;;;28.30;19.15;;;;;;;;;;5114465;28;20196;-72
2022/11/18 09:34:03;;;;;;;39.78;21.45;;;;;;;;;;5114381;28;20199;-68
2022/11/18 09:36:30;;;;;;;35.13;21.95;;;;;;;;;;5113873;28;20199;-69
2022/11/18 09:38:59;;;;;;;25.65;18.00;;;;;;;;;;5113969;28;20188;-68
2022/11/18 09:41:35;;;;;;;32.38;18.50;;;;;;;;;;5114165;28;20198;-69
2022/11/18 09:44:06;;;;;;;28.33;19.15;;;;;;;;;;5114026;28;20212;-70
2022/11/18 09:46:43;;;;;;;28.42;17.08;;;;;;;;;;5114257;28;20185;-71
2022/11/18 09:49:14;;;;;;;23.40;16.20;;;;;;;;;;5113396;28;20181;-68
2022/11/18 09:51:42;;;;;;;23.00;16.58;;;;;;;;;;5113765;28;20433;-69
2022/11/18 09:54:19;;;;;;;22.80;16.73;;;;;;;;;;5113798;28;20223;-68
2022/11/18 09:56:47;;;;;;;23.85;16.02;;;;;;;;;;5113858;28;20177;-69
2022/11/18 09:59:14;;;;;;;23.30;16.57;;;;;;;;;;5114072;28;20733;-69
2022/11/18 10:01:43;;;;;;;23.15;17.23;;;;;;;;;;5113450;28;20531;-69
2022/11/18 10:04:14;;;;;;;25.27;17.90;;;;;;;;;;5113432;28;20212;-69
2022/11/18 10:06:42;;;;;;;24.33;18.65;;;;;;;;;;5114077;28;20431;-67
2022/11/18 10:09:14;;;;;;;20.10;16.00;;;;;;;;;;5113010;28;20283;-68
2022/11/18 10:11:44;;;;;;;26.88;16.45;;;;;;;;;;5112930;28;20283;-70
2022/11/18 10:14:17;;;;;;;21.42;14.70;;;;;;;;;;5113929;28;20197;-70
2022/11/18 10:16:49;;;;;;;23.30;16.47;;;;;;;;;;5113943;28;20212;-68
2022/11/18 10:19:23;;;;;;;21.33;16.20;;;;;;;;;;5113030;28;20427;-66
2022/11/18 10:21:55;;;;;;;25.53;15.30;;;;;;;;;;5113279;28;20438;-69
2022/11/18 10:24:24;;;;;;;20.37;15.33;;;;;;;;;;5113145;28;20471;-69
2022/11/18 10:26:55;;;;;;;20.80;14.80;;;;;;;;;;5113566;28;20442;-69
2022/11/18 10:29:22;;;;;;;18.90;15.30;;;;;;;;;;5113403;28;20826;-68
2022/11/18 10:31:59;;;;;;;23.20;15.03;;;;;;;;;;5113654;28;20439;-71
2022/11/18 10:34:26;;;;;;;21.43;15.27;;;;;;;;;;5114039;28;20453;-69
2022/11/18 10:37:00;;;;;;;22.27;16.10;;;;;;;;;;5113932;28;20451;-69
2022/11/18 10:39:27;;;;;;;18.90;14.30;;;;;;;;;;5113515;28;20442;-68
2022/11/18 10:41:57;;;;;;;19.63;15.85;;;;;;;;;;5113134;28;20474;-69
2022/11/18 10:44:36;;;;;;;22.90;15.90;;;;;;;;;;5113022;28;20315;-68
2022/11/18 10:47:17;;;;;;;25.27;16.07;;;;;;;;;;5113187;28;20846;-69
2022/11/18 10:49:45;;;;;;;22.93;15.40;;;;;;;;;;5113243;28;20856;-68
2022/11/18 10:52:13;;;;;;;23.20;15.40;;;;;;;;;;5113283;28;20446;-68
2022/11/18 10:54:40;;;;;;;24.47;17.70;;;;;;;;;;5113136;28;20447;-68
2022/11/18 10:57:13;;;;;;;27.70;16.30;;;;;;;;;;5113369;28;20438;-68
2022/11/18 10:59:42;;;;;;;26.23;17.80;;;;;;;;;;5113818;28;20430;-68
2022/11/18 11:02:16;;;;;;;25.88;16.25;;;;;;;;;;5113220;28;20492;-68
2022/11/18 11:04:45;;;;;;;22.95;17.10;;;;;;;;;;5113583;28;20215;-68
2022/11/18 11:07:17;;;;;;;26.13;18.37;;;;;;;;;;5113437;28;20220;-68
2022/11/18 11:09:45;;;;;;;26.48;18.52;;;;;;;;;;5113298;28;20834;-70
2022/11/18 11:12:14;;;;;;;27.50;18.30;;;;;;;;;;5113874;28;20642;-69
2022/11/18 11:14:46;;;;;;;28.93;19.50;;;;;;;;;;5116653;28;20442;-68
2022/11/18 11:17:15;;;;;;;29.40;21.07;;;;;;;;;;5116955;28;20436;-68
2022/11/18 11:19:49;;;;;;;33.83;21.97;;;;;;;;;;5116779;28;20439;-67
2022/11/18 11:22:16;;;;;;;30.03;18.70;;;;;;;;;;5117209;28;20506;-69
2022/11/18 11:24:44;;;;;;;27.17;17.80;;;;;;;;;;5117221;28;20476;-70
2022/11/18 11:27:23;;;;;;;28.30;20.50;;;;;;;;;;5116790;28;20474;-70
2022/11/18 11:30:01;;;;;;;26.50;18.43;;;;;;;;;;5116596;28;20430;-69
2022/11/18 11:32:33;;;;;;;28.73;19.60;;;;;;;;;;5116868;28;20517;-70
2022/11/18 11:35:07;;;;;;;29.03;20.30;;;;;;;;;;5116530;28;20438;-70
2022/11/18 11:37:43;;;;;;;27.47;19.00;;;;;;;;;;5117758;28;20538;-70
2022/11/18 11:40:20;;;;;;;33.80;19.90;;;;;;;;;;5117338;28;20776;-70
2022/11/18 11:42:53;;;;;;;38.50;21.67;;;;;;;;;;5116027;28;20477;-70
2022/11/18 11:45:24;;;;;;;28.80;19.57;;;;;;;;;;5116764;28;20506;-71
2022/11/18 11:48:03;;;;;;;29.67;20.08;;;;;;;;;;5116833;28;20439;-71
2022/11/18 11:50:52;;;;;;;35.60;22.13;;;;;;;;;;5117306;28;20180;-70
2022/11/18 11:53:24;;;;;;;33.10;21.00;;;;;;;;;;5116700;28;20473;-70
2022/11/18 11:55:57;;;;;;;31.13;21.02;;;;;;;;;;5116738;28;20510;-70
2022/11/18 11:58:36;;;;;;;31.50;20.93;;;;;;;;;;5116379;28;20196;-70
2022/11/18 12:01:06;;;;;;;30.25;20.48;;;;;;;;;;5116234;28;20904;-70
2022/11/18 12:03:41;;;;;;;32.77;21.00;;;;;;;;;;5116296;28;20259;-70
2022/11/18 12:06:10;;;;;;;25.97;19.50;;;;;;;;;;5116513;28;20453;-70
2022/11/18 12:08:38;;;;;;;28.53;19.27;;;;;;;;;;5115999;28;20445;-70
2022/11/18 12:11:11;;;;;;;32.10;19.20;;;;;;;;;;5116192;28;20482;-70
2022/11/18 12:13:41;;;;;;;26.67;18.27;;;;;;;;;;5116358;28;20443;-70
2022/11/18 12:16:16;;;;;;;24.17;17.77;;;;;;;;;;5115787;28;20440;-69
2022/11/18 12:18:49;;;;;;;30.77;17.05;;;;;;;;;;5115726;28;20457;-70
2022/11/18 12:21:49;;;;;;;24.30;15.87;;;;;;;;;;5115919;28;20274;-70
2022/11/18 12:24:30;;;;;;;20.90;14.47;;;;;;;;;;5052440;28;20493;-69
2022/11/18 12:26:58;;;;;;;19.53;14.70;;;;;;;;;;5052524;28;20442;-69
2022/11/18 12:29:27;;;;;;;24.17;16.07;;;;;;;;;;5087106;28;20812;-69
2022/11/18 12:31:55;;;;;;;29.10;20.00;;;;;;;;;;5115538;28;20529;-69
2022/11/18 12:34:30;;;;;;;19.97;14.37;;;;;;;;;;5115599;28;20776;-69
2022/11/18 12:36:57;;;;;;;17.05;12.45;;;;;;;;;;5115636;28;20442;-69
2022/11/18 12:39:58;;;;;;;16.95;11.88;;;;;;;;;;5115185;28;20196;-69
2022/11/18 12:45:57;;;;;;;14.90;9.75;;;;;;;;;;5114995;28;20242;-69
2022/11/18 12:48:35;;;;;;;12.45;9.43;;;;;;;;;;5115341;28;20180;-69
2022/11/18 12:51:03;;;;;;;13.47;10.00;;;;;;;;;;5116044;28;20189;-69
2022/11/18 12:53:33;;;;;;;11.13;9.80;;;;;;;;;;5115681;28;20798;-69
2022/11/18 12:56:00;;;;;;;11.53;9.80;;;;;;;;;;5116951;28;20434;-69
2022/11/18 12:58:29;;;;;;;13.65;9.85;;;;;;;;;;5115381;28;20438;-69
2022/11/18 13:01:06;;;;;;;11.45;9.73;;;;;;;;;;5115492;28;20189;-69
2022/11/18 13:03:33;;;;;;;13.57;10.30;;;;;;;;;;5115076;28;20244;-69
2022/11/18 13:06:13;;;;;;;12.55;9.35;;;;;;;;;;5115126;28;20199;-69
2022/11/18 13:08:40;;;;;;;17.40;9.90;;;;;;;;;;5115295;28;20197;-69
2022/11/18 13:19:55;;;;;;;14.32;11.65;;;;;;;;;;5114909;28;20965;-69
2022/11/18 13:25:22;;;;;;;16.23;11.15;;;;;;;;;;5114555;28;20457;-69
2022/11/18 13:27:52;;;;;;;13.13;10.55;;;;;;;;;;5115011;28;20177;-69
2022/11/18 13:30:21;;;;;;;15.03;11.53;;;;;;;;;;5114321;28;20646;-69
2022/11/18 13:32:48;;;;;;;15.57;12.00;;;;;;;;;;5114500;28;20800;-69
2022/11/18 13:35:18;;;;;;;25.80;19.03;;;;;;;;;;5114271;28;20197;-69
2022/11/18 13:37:49;;;;;;;14.97;12.90;;;;;;;;;;5113959;28;20451;-69
2022/11/18 13:40:18;;;;;;;15.02;10.30;;;;;;;;;;5114108;28;20439;-69
2022/11/18 13:42:46;;;;;;;17.92;10.48;;;;;;;;;;5114178;28;20220;-69
2022/11/18 13:45:14;;;;;;;13.07;11.17;;;;;;;;;;5114604;28;20245;-69
2022/11/18 13:47:44;;;;;;;10.90;9.80;;;;;;;;;;5114240;28;20521;-69
2022/11/18 13:50:19;;;;;;;12.30;9.67;;;;;;;;;;5114431;28;20188;-69
2022/11/18 13:52:49;;;;;;;17.35;10.82;;;;;;;;;;5114295;28;20506;-68
2022/11/18 13:55:19;;;;;;;15.18;10.65;;;;;;;;;;5114221;28;20203;-69
2022/11/18 13:57:47;;;;;;;13.70;10.15;;;;;;;;;;5114488;28;20612;-67
2022/11/18 14:00:21;;;;;;;12.57;10.75;;;;;;;;;;5113850;28;20196;-66
2022/11/18 14:02:54;;;;;;;15.30;10.48;;;;;;;;;;5113752;28;20191;-65
2022/11/18 14:05:21;;;;;;;13.00;11.30;;;;;;;;;;5114462;28;20205;-66
2022/11/18 14:08:00;;;;;;;12.13;10.82;;;;;;;;;;5113915;28;20447;-67
2022/11/18 14:10:32;;;;;;;11.10;8.90;;;;;;;;;;5114018;28;20185;-68
2022/11/18 14:13:00;;;;;;;14.15;10.70;;;;;;;;;;5113799;28;20200;-66
2022/11/18 14:15:36;;;;;;;15.82;10.70;;;;;;;;;;5113935;28;20196;-68
2022/11/18 14:18:17;;;;;;;11.38;10.23;;;;;;;;;;5114356;28;20222;-68
2022/11/18 14:20:50;;;;;;;11.23;10.13;;;;;;;;;;5114132;28;20271;-68
2022/11/18 14:23:18;;;;;;;13.50;11.05;;;;;;;;;;5113933;28;20272;-67
2022/11/18 14:25:45;;;;;;;13.32;9.93;;;;;;;;;;5113653;28;20226;-68
2022/11/18 14:28:19;;;;;;;12.45;10.57;;;;;;;;;;5111664;28;20211;-68
2022/11/18 14:30:56;;;;;;;13.40;11.30;;;;;;;;;;5112839;28;20199;-68
2022/11/18 14:33:25;;;;;;;16.88;12.80;;;;;;;;;;5113209;28;20187;-68
2022/11/18 14:35:54;;;;;;;13.40;11.30;;;;;;;;;;5113045;28;20199;-67
2022/11/18 14:38:22;;;;;;;14.10;11.45;;;;;;;;;;5112570;28;20188;-68
2022/11/18 14:41:00;;;;;;;14.48;11.00;;;;;;;;;;5113101;28;20609;-67
2022/11/18 14:43:27;;;;;;;13.55;11.13;;;;;;;;;;5113283;28;20315;-68
2022/11/18 14:45:56;;;;;;;14.48;11.57;;;;;;;;;;5113285;28;20568;-67
2022/11/18 14:48:23;;;;;;;12.55;10.77;;;;;;;;;;5114525;28;20215;-68
2022/11/18 14:50:52;;;;;;;12.43;10.00;;;;;;;;;;5117191;28;20228;-67
2022/11/18 14:53:19;;;;;;;12.70;9.20;;;;;;;;;;5117458;28;20203;-67
2022/11/18 14:55:48;;;;;;;10.55;9.23;;;;;;;;;;5117249;28;20196;-68
2022/11/18 14:58:16;;;;;;;10.32;8.95;;;;;;;;;;5116805;28;20204;-68
2022/11/18 15:00:44;;;;;;;15.32;12.02;;;;;;;;;;5117260;28;20510;-69
2022/11/18 15:03:12;;;;;;;12.15;9.65;;;;;;;;;;5117556;28;20212;-68